Time;durP1;ratioP1;P1;durP2;ratioP2;P2;SDS_P1;SDS_P2;PMS_P1;PMS_P2;Temp;Humidity;BMP_temperature;BMP_pressure;BME280_temperature;BME280_humidity;BME280_pressure;Samples;Min_cycle;Max_cycle;Signal;HPM_P1;HPM_P2
2021/12/13 00:01:06;;;;;;;;;31.25;27.75;;;;;11.77;71.93;102227.31;4953807;28;46301;-46
2021/12/13 00:03:50;;;;;;;;;27.25;25.25;;;;;11.77;72.00;102228.19;4959476;28;45396;-45
2021/12/13 00:06:22;;;;;;;;;18.00;18.00;;;;;11.78;72.21;102219.41;4948924;28;45511;-52
2021/12/13 00:08:53;;;;;;;;;30.00;24.75;;;;;11.80;72.10;102224.72;4949640;28;46406;-46
2021/12/13 00:11:22;;;;;;;;;26.50;22.75;;;;;11.78;72.10;102218.53;4948869;28;45497;-47
2021/12/13 00:13:52;;;;;;;;;19.50;18.75;;;;;11.78;72.00;102218.53;4961498;28;45468;-47
2021/12/13 00:16:31;;;;;;;;;26.50;24.25;;;;;11.74;72.09;102219.41;4948985;28;45385;-48
2021/12/13 00:19:01;;;;;;;;;24.25;22.75;;;;;11.74;71.95;102209.75;4951154;28;45420;-47
2021/12/13 00:21:38;;;;;;;;;20.75;19.50;;;;;11.75;72.04;102207.97;4959986;28;45344;-46
2021/12/13 00:24:26;;;;;;;;;24.25;22.50;;;;;11.76;72.04;102207.09;4948757;28;45244;-48
2021/12/13 00:27:02;;;;;;;;;20.00;20.00;;;;;11.77;71.69;102209.75;4952229;28;45245;-49
2021/12/13 00:29:53;;;;;;;;;25.25;20.75;;;;;11.75;71.88;102202.72;4955026;28;45414;-47
2021/12/13 00:32:28;;;;;;;;;25.00;22.00;;;;;11.77;71.80;102209.75;4952690;28;46403;-48
2021/12/13 00:34:59;;;;;;;;;28.75;24.00;;;;;11.78;71.86;102200.97;4949911;28;45183;-45
2021/12/13 00:37:33;;;;;;;;;28.00;23.75;;;;;11.78;71.98;102197.47;4948537;28;45300;-48
2021/12/13 00:40:27;;;;;;;;;29.50;23.25;;;;;11.77;72.09;102190.44;4959885;28;45456;-46
2021/12/13 00:43:04;;;;;;;;;27.25;23.25;;;;;11.77;72.04;102191.31;4948906;28;45318;-45
2021/12/13 00:45:32;;;;;;;;;28.75;23.50;;;;;11.78;71.97;102192.19;4948422;28;45524;-47
2021/12/13 00:48:01;;;;;;;;;26.75;23.00;;;;;11.77;71.69;102193.94;4953074;28;45309;-45
2021/12/13 00:50:31;;;;;;;;;28.25;23.50;;;;;11.76;71.99;102193.94;4954867;28;45301;-47
2021/12/13 00:52:58;;;;;;;;;26.75;23.00;;;;;11.76;71.89;102201.84;4951215;28;45367;-48
2021/12/13 00:55:30;;;;;;;;;26.25;25.00;;;;;11.75;71.89;102190.44;4948179;28;45279;-49
2021/12/13 00:58:19;;;;;;;;;28.25;24.25;;;;;11.74;72.00;102193.06;4950984;28;45303;-47
2021/12/13 01:01:08;;;;;;;;;20.25;18.00;;;;;11.74;72.02;102193.94;4949334;28;45476;-46
2021/12/13 01:03:46;;;;;;;;;25.00;21.25;;;;;11.75;71.92;102194.81;4948197;28;46184;-45
2021/12/13 01:06:49;;;;;;;;;27.00;23.75;;;;;11.74;72.00;102198.34;4948440;28;45189;-47
2021/12/13 01:09:42;;;;;;;;;21.50;19.50;;;;;11.75;72.01;102202.72;4952686;28;45339;-46
2021/12/13 01:12:13;;;;;;;;;26.75;19.00;;;;;11.74;71.90;102200.97;4932027;28;45337;-45
2021/12/13 01:15:11;;;;;;;;;28.75;23.50;;;;;11.70;71.84;102197.44;4959004;28;45233;-45
2021/12/13 01:17:56;;;;;;;;;21.75;20.75;;;;;11.73;71.96;102199.22;4954324;28;45278;-47
2021/12/13 01:20:34;;;;;;;;;24.75;21.50;;;;;11.73;71.68;102201.84;4950561;28;45422;-46
2021/12/13 01:23:07;;;;;;;;;23.75;21.75;;;;;11.71;71.80;102205.34;4947788;28;45374;-48
2021/12/13 01:25:49;;;;;;;;;26.00;24.25;;;;;11.73;71.79;102201.84;4948704;28;46598;-47
2021/12/13 01:28:49;;;;;;;;;20.25;19.00;;;;;11.69;71.73;102199.19;4948573;28;45231;-48
2021/12/13 01:31:34;;;;;;;;;22.00;21.00;;;;;11.68;71.92;102192.19;4899031;28;45510;-45
2021/12/13 01:34:02;;;;;;;;;21.25;19.25;;;;;11.69;71.90;102193.91;4930562;28;45595;-45
2021/12/13 01:36:45;;;;;;;;;21.00;21.00;;;;;11.67;71.84;102198.31;4953118;28;46072;-45
2021/12/13 01:39:18;;;;;;;;;21.75;19.00;;;;;11.67;71.92;102195.69;4936670;28;45394;-48
2021/12/13 01:41:49;;;;;;;;;29.00;21.50;;;;;11.67;71.96;102200.94;4952089;28;45280;-47
2021/12/13 01:44:25;;;;;;;;;20.00;18.25;;;;;11.66;71.82;102198.28;4947766;28;45331;-47
2021/12/13 01:46:54;;;;;;;;;22.25;21.50;;;;;11.65;71.87;102201.81;4948019;28;45360;-47
2021/12/13 01:49:29;;;;;;;;;27.75;25.00;;;;;11.65;71.86;102201.81;4948583;28;45437;-48
2021/12/13 01:51:57;;;;;;;;;26.25;22.00;;;;;11.66;71.75;102200.91;4957993;28;45400;-46
2021/12/13 01:54:23;;;;;;;;;24.75;20.75;;;;;11.66;71.77;102195.66;4950047;28;45343;-48
2021/12/13 01:59:52;;;;;;;;;23.50;16.00;;;;;11.66;71.81;102203.53;4947900;28;45248;-45
2021/12/13 02:02:38;;;;;;;;;23.75;21.00;;;;;11.65;71.91;102207.94;4931402;28;45252;-46
2021/12/13 02:05:15;;;;;;;;;22.25;19.00;;;;;11.65;71.76;102201.81;4944009;28;45238;-49
2021/12/13 02:07:53;;;;;;;;;21.50;20.25;;;;;11.65;71.81;102202.69;4940751;28;46357;-44
2021/12/13 02:10:29;;;;;;;;;20.25;20.25;;;;;11.64;71.95;102206.19;4947836;28;45371;-45
2021/12/13 02:12:59;;;;;;;;;24.00;21.00;;;;;11.64;71.82;102208.81;4953926;28;45371;-47
2021/12/13 02:18:17;;;;;;;;;25.75;22.25;;;;;11.62;71.76;102207.94;4953651;28;45749;-45
2021/12/13 02:20:51;;;;;;;;;23.75;21.75;;;;;11.64;71.99;102203.53;4953663;28;45292;-44
2021/12/13 02:23:18;;;;;;;;;27.25;23.25;;;;;11.63;71.83;102209.69;4930932;28;45439;-47
2021/12/13 02:25:50;;;;;;;;;25.50;21.75;;;;;11.62;71.89;102209.69;4955622;28;45428;-48
2021/12/13 02:28:23;;;;;;;;;25.75;20.00;;;;;11.64;71.78;102214.09;4949261;28;46258;-44
2021/12/13 02:31:06;;;;;;;;;29.25;21.50;;;;;11.64;71.92;102211.44;4946831;28;45450;-45
2021/12/13 02:33:37;;;;;;;;;26.00;21.25;;;;;11.63;71.95;102214.94;4960183;28;45347;-44
2021/12/13 02:36:17;;;;;;;;;22.00;19.00;;;;;11.65;71.81;102218.47;4947043;28;45165;-47
2021/12/13 02:38:46;;;;;;;;;22.75;20.00;;;;;11.65;71.59;102213.22;4951233;28;46240;-43
2021/12/13 02:41:13;;;;;;;;;17.50;17.50;;;;;11.66;71.67;102208.81;4944100;28;45301;-49
2021/12/13 02:43:45;;;;;;;;;20.75;19.25;;;;;11.66;71.89;102212.34;4957031;28;45193;-46
2021/12/13 02:46:11;;;;;;;;;21.00;19.50;;;;;11.68;71.62;102205.34;4956070;28;45312;-46
2021/12/13 02:48:56;;;;;;;;;19.25;16.75;;;;;11.68;71.62;102202.72;4956725;28;45435;-48
2021/12/13 02:51:27;;;;;;;;;23.25;20.25;;;;;11.69;71.72;102198.31;4936616;28;45200;-45
2021/12/13 02:54:27;;;;;;;;;20.00;19.00;;;;;11.69;71.64;102198.31;4949966;28;45454;-45
2021/12/13 02:57:06;;;;;;;;;26.50;23.00;;;;;11.69;71.56;102199.19;4947144;28;45423;-46
2021/12/13 02:59:34;;;;;;;;;27.25;21.25;;;;;11.69;71.88;102204.44;4952058;28;45398;-45
2021/12/13 03:02:11;;;;;;;;;25.50;21.50;;;;;11.70;71.85;102200.06;4956392;28;46051;-46
2021/12/13 03:04:36;;;;;;;;;23.25;19.50;;;;;11.70;71.67;102198.31;4956851;28;45405;-46
2021/12/13 03:07:33;;;;;;;;;21.50;19.00;;;;;11.71;71.47;102202.72;4962411;28;45221;-47
2021/12/13 03:10:03;;;;;;;;;25.75;22.50;;;;;11.71;71.60;102197.44;4948843;28;47164;-46
2021/12/13 03:12:29;;;;;;;;;21.25;18.25;;;;;11.73;71.79;102199.22;4956360;28;45336;-45
2021/12/13 03:15:03;;;;;;;;;20.25;17.50;;;;;11.73;71.67;102191.31;4958146;28;45260;-48
2021/12/13 03:18:00;;;;;;;;;21.00;19.00;;;;;11.74;71.74;102198.34;4956002;28;45408;-46
2021/12/13 03:20:26;;;;;;;;;19.50;17.00;;;;;11.73;71.75;102196.56;4912784;28;46265;-46
2021/12/13 03:23:08;;;;;;;;;21.75;19.25;;;;;11.73;71.63;102196.56;4958689;28;45271;-49
2021/12/13 03:25:40;;;;;;;;;13.75;13.75;;;;;11.73;71.71;102199.22;4955930;28;45384;-48
2021/12/13 03:28:43;;;;;;;;;18.00;16.75;;;;;11.74;71.41;102200.97;4950056;28;45352;-46
2021/12/13 03:31:13;;;;;;;;;20.50;18.75;;;;;11.73;71.67;102200.06;4949346;28;46156;-46
2021/12/13 03:33:50;;;;;;;;;20.25;13.75;;;;;11.74;71.53;102193.94;4941962;28;45543;-45
2021/12/13 03:36:22;;;;;;;;;21.00;18.75;;;;;11.75;71.51;102187.81;4948882;28;45545;-47
2021/12/13 03:38:50;;;;;;;;;20.25;17.50;;;;;11.75;71.68;102190.44;4962136;28;45313;-48
2021/12/13 03:41:21;;;;;;;;;20.25;16.00;;;;;11.76;71.46;102183.41;4955564;28;45497;-45
2021/12/13 03:43:56;;;;;;;;;14.25;11.50;;;;;11.76;71.37;102188.66;4955913;28;45407;-46
2021/12/13 03:46:26;;;;;;;;;16.75;15.50;;;;;11.72;71.40;102182.50;4952509;28;45386;-44
2021/12/13 03:48:55;;;;;;;;;16.50;15.25;;;;;11.74;71.52;102183.41;4948496;28;45193;-47
2021/12/13 03:51:25;;;;;;;;;19.75;18.50;;;;;11.74;71.63;102185.19;4951962;28;46468;-45
2021/12/13 03:53:53;;;;;;;;;18.75;14.50;;;;;11.69;71.46;102166.72;4951268;28;45265;-46
2021/12/13 03:56:23;;;;;;;;;16.50;14.75;;;;;11.69;71.55;102170.22;4952782;28;45288;-49
2021/12/13 03:58:55;;;;;;;;;21.00;14.25;;;;;11.69;71.61;102179.88;4949283;28;45326;-46
2021/12/13 04:01:33;;;;;;;;;14.00;13.00;;;;;11.70;71.49;102165.84;4960873;28;46133;-48
2021/12/13 04:04:01;;;;;;;;;12.75;10.25;;;;;11.68;71.49;102164.94;4950553;28;45337;-46
2021/12/13 04:06:27;;;;;;;;;13.00;11.00;;;;;11.69;71.41;102172.84;4948921;28;45164;-49
2021/12/13 04:08:56;;;;;;;;;17.75;13.50;;;;;11.69;71.30;102172.84;4960920;28;45911;-46
2021/12/13 04:11:24;;;;;;;;;15.00;13.50;;;;;11.68;71.46;102171.13;4976821;28;47058;-48
2021/12/13 04:13:57;;;;;;;;;14.50;14.25;;;;;11.67;71.53;102176.34;4960637;28;45472;-45
2021/12/13 04:16:35;;;;;;;;;18.50;15.25;;;;;11.68;71.45;102178.13;4949117;28;45266;-48
2021/12/13 04:19:07;;;;;;;;;16.00;14.75;;;;;11.68;71.39;102170.22;4950056;28;45184;-46
2021/12/13 04:21:57;;;;;;;;;17.00;13.50;;;;;11.68;71.45;102172.84;4954962;28;45457;-47
2021/12/13 04:24:36;;;;;;;;;18.75;16.25;;;;;11.66;71.60;102164.94;4955175;28;45418;-48
2021/12/13 04:27:30;;;;;;;;;18.50;16.00;;;;;11.66;71.22;102162.31;4953861;28;45308;-45
2021/12/13 04:30:00;;;;;;;;;16.50;13.25;;;;;11.66;71.36;102166.69;4951322;28;45333;-46
2021/12/13 04:32:33;;;;;;;;;18.25;15.00;;;;;11.65;71.11;102176.34;4959246;28;47265;-49
2021/12/13 04:35:05;;;;;;;;;14.00;13.25;;;;;11.65;71.23;102176.34;4960349;28;45395;-50
2021/12/13 04:37:45;;;;;;;;;12.00;12.00;;;;;11.66;71.29;102178.13;4958907;28;45609;-49
2021/12/13 04:40:19;;;;;;;;;18.50;15.25;;;;;11.66;71.48;102178.13;4942370;28;45429;-47
2021/12/13 04:42:49;;;;;;;;;19.00;15.00;;;;;11.65;71.24;102176.34;4954926;28;46136;-49
2021/12/13 04:45:21;;;;;;;;;12.75;11.25;;;;;11.67;71.25;102176.34;4955057;28;45289;-45
2021/12/13 04:47:49;;;;;;;;;16.50;14.50;;;;;11.67;71.25;102179.88;4949474;28;45282;-46
2021/12/13 04:50:23;;;;;;;;;15.50;13.50;;;;;11.67;71.15;102179.88;4948443;28;45235;-48
2021/12/13 04:52:49;;;;;;;;;14.75;14.00;;;;;11.69;71.37;102190.41;4952499;28;45234;-44
2021/12/13 04:55:20;;;;;;;;;18.50;15.75;;;;;11.68;71.25;102189.53;4937342;28;46006;-49
2021/12/13 04:57:48;;;;;;;;;19.00;18.25;;;;;11.68;71.20;102183.38;4951868;28;45300;-47
2021/12/13 05:00:18;;;;;;;;;19.25;19.25;;;;;11.69;71.14;102196.53;4947579;28;45538;-48
2021/12/13 05:02:47;;;;;;;;;17.25;17.25;;;;;11.68;71.27;102192.19;4950555;28;45323;-46
2021/12/13 05:05:14;;;;;;;;;16.75;14.75;;;;;11.69;71.03;102199.19;4954447;28;45260;-45
2021/12/13 05:07:43;;;;;;;;;16.50;14.00;;;;;11.69;71.12;102199.19;4935521;28;45211;-45
2021/12/13 05:10:10;;;;;;;;;15.00;15.00;;;;;11.70;71.08;102200.06;4930928;28;45397;-46
2021/12/13 05:12:37;;;;;;;;;19.75;16.75;;;;;11.68;71.28;102200.06;4955072;28;46133;-46
2021/12/13 05:15:10;;;;;;;;;14.25;13.00;;;;;11.67;71.19;102200.94;4939465;28;45280;-45
2021/12/13 05:17:44;;;;;;;;;19.75;17.50;;;;;11.69;71.02;102203.56;4954697;28;45317;-45
2021/12/13 05:20:17;;;;;;;;;18.75;18.00;;;;;11.69;71.08;102200.94;4949417;28;45336;-45
2021/12/13 05:22:52;;;;;;;;;15.00;15.00;;;;;11.68;71.24;102205.34;4947710;28;46316;-49
2021/12/13 05:25:40;;;;;;;;;14.25;13.25;;;;;11.67;71.15;102200.03;4951062;28;45347;-48
2021/12/13 05:28:19;;;;;;;;;12.50;12.50;;;;;11.66;71.06;102201.81;4948201;28;45244;-48
2021/12/13 05:30:49;;;;;;;;;11.50;11.50;;;;;11.66;71.08;102203.53;4947654;28;45250;-45
2021/12/13 05:33:18;;;;;;;;;17.50;14.25;;;;;11.65;71.07;102213.22;4960767;28;46217;-46
2021/12/13 05:35:47;;;;;;;;;16.25;15.75;;;;;11.65;71.23;102212.34;4947775;28;45174;-47
2021/12/13 05:38:43;;;;;;;;;14.25;12.00;;;;;11.64;71.14;102205.31;4952406;28;45344;-44
2021/12/13 05:41:13;;;;;;;;;19.75;13.75;;;;;11.64;71.04;102208.81;4935300;28;45319;-45
2021/12/13 05:43:42;;;;;;;;;14.00;12.25;;;;;11.65;70.88;102207.94;4943087;28;47171;-45
2021/12/13 05:46:16;;;;;;;;;17.50;13.50;;;;;11.65;70.82;102207.94;4953310;28;45392;-48
2021/12/13 05:48:49;;;;;;;;;20.25;15.25;;;;;11.65;70.79;102210.56;4954260;28;45493;-52
2021/12/13 05:51:27;;;;;;;;;17.25;15.00;;;;;11.66;70.81;102209.72;4950834;28;45254;-47
2021/12/13 05:53:59;;;;;;;;;20.75;16.00;;;;;11.65;70.71;102209.72;4947314;28;47007;-49
2021/12/13 05:56:32;;;;;;;;;16.75;14.25;;;;;11.66;70.75;102204.44;4948427;28;45311;-48
2021/12/13 05:59:26;;;;;;;;;21.00;15.00;;;;;11.66;70.93;102204.44;4948288;28;45378;-45
2021/12/13 06:02:11;;;;;;;;;17.00;14.75;;;;;11.63;70.63;102207.03;4947589;28;45233;-49
2021/12/13 06:04:54;;;;;;;;;16.75;16.50;;;;;11.62;70.73;102202.69;4947208;28;46959;-45
2021/12/13 06:07:28;;;;;;;;;17.75;15.75;;;;;11.61;70.86;102203.53;4949860;28;45506;-45
2021/12/13 06:10:05;;;;;;;;;15.00;13.00;;;;;11.61;70.86;102211.44;4947057;28;45292;-47
2021/12/13 06:12:36;;;;;;;;;16.50;12.00;;;;;11.58;70.98;102197.38;4955109;28;45273;-45
2021/12/13 06:15:17;;;;;;;;;16.75;13.25;;;;;11.54;70.70;102201.75;4957628;28;46206;-47
2021/12/13 06:17:56;;;;;;;;;15.50;13.75;;;;;11.48;70.84;102201.72;4941149;28;45323;-47
2021/12/13 06:20:32;;;;;;;;;16.25;14.00;;;;;11.50;70.82;102197.34;4954296;28;45322;-46
2021/12/13 06:23:09;;;;;;;;;17.00;15.25;;;;;11.47;70.78;102203.47;4961677;28;45329;-45
2021/12/13 06:25:36;;;;;;;;;15.75;14.00;;;;;11.46;70.63;102203.44;4950879;28;45437;-44
2021/12/13 06:28:04;;;;;;;;;11.25;10.25;;;;;11.45;70.72;102206.97;4957170;28;45217;-44
2021/12/13 06:30:33;;;;;;;;;17.50;14.25;;;;;11.43;70.74;102204.31;4957032;28;45370;-45
2021/12/13 06:33:08;;;;;;;;;12.00;10.25;;;;;11.43;70.62;102200.81;4962057;28;45503;-45
2021/12/13 06:35:48;;;;;;;;;13.00;12.50;;;;;11.38;70.72;102203.41;4950504;28;45554;-46
2021/12/13 07:11:21;;;;;;;;;8.75;7.75;;;;;11.31;70.65;102214.78;5190544;22;45811;-45
2021/12/13 07:13:58;;;;;;;;;7.50;7.50;;;;;11.34;70.45;102214.78;4962987;28;45544;-48
2021/12/13 07:16:32;;;;;;;;;6.00;6.00;;;;;11.33;70.54;102219.19;4945996;28;45378;-47
2021/12/13 07:19:05;;;;;;;;;16.00;11.25;;;;;11.33;70.52;102208.66;4943116;28;47174;-49
2021/12/13 07:21:41;;;;;;;;;10.00;9.50;;;;;11.34;70.58;102223.56;4943052;28;45310;-49
2021/12/13 07:24:18;;;;;;;;;12.00;11.25;;;;;11.37;70.49;102227.97;4942296;28;45344;-51
2021/12/13 07:27:06;;;;;;;;;18.75;18.25;;;;;11.38;70.41;102211.31;4943486;28;45236;-50
2021/12/13 07:29:56;;;;;;;;;17.25;14.25;;;;;11.38;70.40;102213.94;4942933;28;47171;-50
2021/12/13 07:32:29;;;;;;;;;18.00;16.00;;;;;11.40;70.63;102211.34;4953006;28;45415;-49
2021/12/13 07:35:04;;;;;;;;;15.50;15.50;;;;;11.38;70.49;102208.66;4952884;28;45688;-46
2021/12/13 07:37:41;;;;;;;;;17.00;16.00;;;;;11.36;70.55;102200.78;4942015;28;45484;-47
2021/12/13 07:40:12;;;;;;;;;20.25;17.75;;;;;11.38;70.16;102206.94;4938192;28;46279;-45
2021/12/13 07:42:37;;;;;;;;;18.75;16.75;;;;;11.37;70.49;102213.06;4943948;28;45490;-48
2021/12/13 07:45:22;;;;;;;;;19.00;17.00;;;;;11.33;70.70;102211.31;4942864;28;45328;-45
2021/12/13 07:47:50;;;;;;;;;17.00;17.00;;;;;11.34;70.57;102209.53;4950542;28;45352;-47
2021/12/13 07:50:19;;;;;;;;;13.75;12.25;;;;;11.33;70.46;102221.81;4933384;28;48117;-46
2021/12/13 07:52:51;;;;;;;;;16.50;13.75;;;;;11.34;70.49;102226.19;4961800;28;45197;-47
2021/12/13 07:55:22;;;;;;;;;12.50;12.25;;;;;11.33;70.48;102228.81;4962150;28;45554;-46
2021/12/13 07:57:49;;;;;;;;;13.75;10.75;;;;;11.26;70.52;102213.84;4962471;28;45384;-47
2021/12/13 08:00:29;;;;;;;;;15.25;14.00;;;;;11.26;70.70;102212.13;4944541;28;45363;-48
2021/12/13 08:03:09;;;;;;;;;12.50;11.50;;;;;11.25;70.58;102214.75;4962244;28;45224;-46
2021/12/13 08:05:41;;;;;;;;;10.75;10.00;;;;;11.23;70.71;102219.97;4945166;28;45363;-46
2021/12/13 08:08:16;;;;;;;;;14.50;14.50;;;;;11.22;70.65;102223.50;4944435;28;45437;-44
2021/12/13 08:10:44;;;;;;;;;16.75;12.25;;;;;11.22;70.46;102215.63;4950536;28;46268;-45
2021/12/13 08:13:21;;;;;;;;;9.00;9.00;;;;;11.19;70.46;102210.31;4960590;28;45314;-45
2021/12/13 08:15:56;;;;;;;;;17.50;13.25;;;;;11.19;70.46;102212.94;4962256;28;45438;-45
2021/12/13 08:18:38;;;;;;;;;9.75;9.75;;;;;11.19;70.55;102215.56;4961904;28;45333;-44
2021/12/13 08:21:20;;;;;;;;;9.25;8.00;;;;;11.17;70.52;102212.94;4961632;28;45331;-45
2021/12/13 08:23:50;;;;;;;;;8.25;8.25;;;;;11.16;70.44;102224.31;4961861;28;45284;-48
2021/12/13 08:26:27;;;;;;;;;7.00;7.00;;;;;11.18;70.46;102221.69;4961816;28;45305;-49
2021/12/13 08:28:55;;;;;;;;;6.00;6.00;;;;;11.17;70.59;102219.94;4961986;28;45276;-46
2021/12/13 08:31:24;;;;;;;;;7.50;5.50;;;;;11.17;70.43;102238.34;4960270;28;46377;-47
2021/12/13 08:33:55;;;;;;;;;7.00;7.00;;;;;11.19;70.51;102231.38;4954238;28;45274;-46
2021/12/13 08:36:23;;;;;;;;;8.00;6.50;;;;;11.20;70.52;102235.75;4957309;28;45332;-51
2021/12/13 08:39:09;;;;;;;;;5.75;4.00;;;;;11.18;70.55;102238.38;4961479;28;45499;-50
2021/12/13 08:41:38;;;;;;;;;4.25;3.75;;;;;11.16;70.63;102244.50;4955547;28;46292;-49
2021/12/13 08:44:10;;;;;;;;;7.00;5.00;;;;;11.17;70.63;102240.97;4958252;28;45320;-51
2021/12/13 08:46:56;;;;;;;;;8.50;8.00;;;;;11.17;70.41;102246.25;4961913;28;45392;-51
2021/12/13 08:49:31;;;;;;;;;9.00;7.50;;;;;11.17;70.48;102244.50;4961694;28;45325;-46
2021/12/13 08:52:24;;;;;;;;;5.75;5.75;;;;;11.18;70.63;102250.66;4961113;28;47152;-48
2021/12/13 08:54:56;;;;;;;;;12.75;10.75;;;;;11.16;70.78;102253.28;4961217;28;45468;-49
2021/12/13 08:57:39;;;;;;;;;8.50;8.50;;;;;11.14;70.56;102246.25;4961545;28;45222;-50
2021/12/13 09:00:32;;;;;;;;;11.25;11.25;;;;;11.14;70.49;102240.97;4961318;28;45349;-51
2021/12/13 09:03:10;;;;;;;;;11.25;9.50;;;;;11.12;70.53;102242.69;4961280;28;46548;-48
2021/12/13 09:05:41;;;;;;;;;11.75;10.25;;;;;11.06;70.45;102244.41;4961453;28;45301;-50
2021/12/13 09:08:11;;;;;;;;;16.00;10.00;;;;;11.09;70.35;102254.09;4961283;28;45298;-50
2021/12/13 09:11:06;;;;;;;;;6.50;6.00;;;;;11.09;70.46;102256.72;4960913;28;45198;-46
2021/12/13 09:13:41;;;;;;;;;10.25;8.50;;;;;11.07;70.31;102255.84;4932236;28;46287;-48
2021/12/13 09:16:09;;;;;;;;;15.00;9.75;;;;;11.04;70.31;102251.44;4961374;28;45291;-48
2021/12/13 09:18:35;;;;;;;;;7.75;6.00;;;;;11.06;70.40;102268.09;4961407;28;45295;-48
2021/12/13 09:21:03;;;;;;;;;9.25;7.25;;;;;11.03;70.29;102268.09;4960941;28;45328;-47
2021/12/13 09:23:37;;;;;;;;;8.50;7.25;;;;;11.01;70.30;102264.56;4943967;28;46121;-49
2021/12/13 09:26:27;;;;;;;;;4.75;4.75;;;;;11.01;70.35;102266.31;4943889;28;45276;-48
2021/12/13 09:29:06;;;;;;;;;12.50;10.00;;;;;11.02;70.18;102270.72;4961263;28;45482;-48
2021/12/13 09:31:36;;;;;;;;;6.00;6.00;;;;;11.01;70.04;102272.44;4960925;28;45326;-48
2021/12/13 09:34:17;;;;;;;;;7.00;7.00;;;;;10.99;70.30;102273.31;4960887;28;45236;-50
2021/12/13 09:36:45;;;;;;;;;7.00;5.00;;;;;10.95;70.29;102274.16;4961023;28;45335;-47
2021/12/13 09:39:17;;;;;;;;;3.50;2.25;;;;;10.96;70.19;102268.91;4960906;28;45324;-49
2021/12/13 09:41:53;;;;;;;;;2.50;2.50;;;;;10.98;69.99;102272.44;4960932;28;45364;-50
2021/12/13 09:44:30;;;;;;;;;1.50;1.50;;;;;10.96;70.13;102273.28;4960995;28;46280;-49
2021/12/13 09:47:09;;;;;;;;;3.25;2.75;;;;;10.93;70.04;102267.97;4960950;28;45483;-49
2021/12/13 09:49:47;;;;;;;;;3.00;1.25;;;;;10.89;69.98;102273.22;4964407;28;45388;-49
2021/12/13 09:52:26;;;;;;;;;3.50;2.00;;;;;10.89;69.87;102272.34;4947035;28;45200;-47
2021/12/13 09:54:59;;;;;;;;;2.00;2.00;;;;;10.83;69.87;102267.91;4964104;28;46630;-45
2021/12/13 09:57:50;;;;;;;;;0.50;0.50;;;;;10.81;69.80;102274.03;4964300;28;45228;-46
2021/12/13 10:00:21;;;;;;;;;0.25;0.25;;;;;10.83;69.96;102272.28;4938751;28;45249;-48
2021/12/13 10:02:55;;;;;;;;;1.00;1.00;;;;;10.80;69.64;102272.25;4964217;28;45352;-49
2021/12/13 10:05:34;;;;;;;;;0.00;0.00;;;;;10.72;69.72;102266.94;4946459;28;47229;-46
2021/12/13 10:08:06;;;;;;;;;0.00;0.00;;;;;10.73;69.53;102277.47;4963842;28;45653;-46
2021/12/13 10:10:40;;;;;;;;;0.25;0.00;;;;;10.71;69.48;102278.31;4951415;28;45298;-47
2021/12/13 10:13:12;;;;;;;;;1.00;0.00;;;;;10.67;69.56;102274.78;4962603;28;45633;-49
2021/12/13 10:15:43;;;;;;;;;1.50;1.50;;;;;10.59;69.37;102255.44;4962666;28;46396;-46
2021/12/13 10:18:13;;;;;;;;;2.00;1.00;;;;;10.64;69.57;102264.25;4943676;28;45348;-49
2021/12/13 10:20:45;;;;;;;;;2.00;2.00;;;;;10.63;69.38;102265.09;4962462;28;45256;-51
2021/12/13 10:23:16;;;;;;;;;1.25;1.25;;;;;10.60;69.33;102262.41;4963989;28;45341;-47
2021/12/13 10:25:46;;;;;;;;;2.00;2.00;;;;;10.54;69.46;102265.88;4963460;28;47264;-50
2021/12/13 10:28:25;;;;;;;;;2.00;2.00;;;;;10.52;69.31;102266.75;4963921;28;45381;-48
2021/12/13 10:30:59;;;;;;;;;4.00;3.00;;;;;10.53;69.42;102263.25;4963504;28;45433;-45
2021/12/13 10:33:26;;;;;;;;;2.00;2.00;;;;;10.52;69.21;102250.97;4963581;28;45426;-48
2021/12/13 10:35:54;;;;;;;;;3.25;3.25;;;;;10.45;69.51;102260.50;4963300;28;45405;-48
2021/12/13 10:38:33;;;;;;;;;3.25;3.25;;;;;10.48;69.19;102254.44;4963505;28;45345;-46
2021/12/13 10:41:13;;;;;;;;;5.00;3.25;;;;;10.49;69.32;102245.66;4963436;28;45342;-46
2021/12/13 10:43:44;;;;;;;;;1.00;1.00;;;;;10.46;69.24;102243.00;4963440;28;45318;-47
2021/12/13 10:46:14;;;;;;;;;5.25;5.25;;;;;10.48;69.26;102251.81;4963471;28;46137;-46
2021/12/13 10:48:46;;;;;;;;;5.25;4.50;;;;;10.48;69.17;102249.19;4963248;28;45317;-49
2021/12/13 10:51:17;;;;;;;;;4.00;3.00;;;;;10.47;69.20;102247.41;4961984;28;45494;-46
2021/12/13 10:53:45;;;;;;;;;4.25;4.25;;;;;10.48;69.24;102250.06;4963262;28;45246;-47
2021/12/13 10:56:21;;;;;;;;;4.75;4.75;;;;;10.45;69.06;102236.84;4962036;28;47409;-47
2021/12/13 10:58:50;;;;;;;;;4.00;3.50;;;;;10.46;69.26;102245.66;4963065;28;45173;-47
2021/12/13 11:01:27;;;;;;;;;7.00;7.00;;;;;10.48;69.13;102241.28;4963258;28;45334;-47
2021/12/13 11:03:56;;;;;;;;;3.75;3.75;;;;;10.46;69.22;102241.25;4962009;28;45457;-46
2021/12/13 11:06:22;;;;;;;;;4.25;4.25;;;;;10.43;69.10;102241.25;4962735;28;45377;-48
2021/12/13 11:08:50;;;;;;;;;4.00;3.50;;;;;10.43;69.06;102253.47;4963012;28;45345;-49
2021/12/13 11:11:28;;;;;;;;;1.75;1.75;;;;;10.41;69.06;102248.22;4961672;28;45463;-45
2021/12/13 11:13:57;;;;;;;;;3.00;3.00;;;;;10.42;69.02;102249.97;4945579;28;45272;-48
2021/12/13 11:16:30;;;;;;;;;3.75;3.00;;;;;10.40;69.08;102243.81;4962836;28;47162;-46
2021/12/13 11:18:58;;;;;;;;;3.00;3.00;;;;;10.39;69.16;102245.56;4962907;28;45166;-49
2021/12/13 11:21:32;;;;;;;;;4.50;4.50;;;;;10.38;69.50;102237.69;4962854;28;45262;-49
2021/12/13 11:23:58;;;;;;;;;2.00;2.00;;;;;10.41;69.00;102242.97;4961583;28;45440;-49
2021/12/13 11:26:29;;;;;;;;;2.50;2.00;;;;;10.36;69.06;102242.03;4962837;28;46986;-46
2021/12/13 11:28:56;;;;;;;;;2.00;2.00;;;;;10.38;69.15;102243.81;4961675;28;45284;-47
2021/12/13 11:31:31;;;;;;;;;3.00;2.50;;;;;10.39;68.92;102250.84;4962891;28;45386;-47
2021/12/13 11:34:03;;;;;;;;;2.00;2.00;;;;;10.39;68.96;102240.31;4962577;28;45156;-46
2021/12/13 11:36:47;;;;;;;;;2.00;1.25;;;;;10.40;68.98;102244.72;4961133;28;47189;-45
2021/12/13 11:40:00;;;;;;;;;3.25;2.25;;;;;10.38;68.96;102245.56;4962423;28;45302;-46
2021/12/13 11:42:34;;;;;;;;;5.00;3.00;;;;;10.39;68.96;102242.94;4940269;28;45312;-48
2021/12/13 11:45:38;;;;;;;;;4.75;2.75;;;;;10.43;68.88;102235.09;4962548;28;45313;-48
2021/12/13 11:48:41;;;;;;;;;4.00;4.00;;;;;10.45;68.77;102236.00;4962496;28;45346;-49
2021/12/13 11:51:48;;;;;;;;;4.00;4.00;;;;;10.43;68.96;102228.09;4962204;28;45307;-48
2021/12/13 11:54:38;;;;;;;;;5.50;4.00;;;;;10.41;68.78;102235.06;4961209;28;45497;-45
2021/12/13 11:57:48;;;;;;;;;5.00;4.50;;;;;10.39;69.16;102232.44;4962226;28;45440;-46
2021/12/13 12:00:46;;;;;;;;;4.50;4.50;;;;;10.42;68.89;102244.72;4962152;28;45755;-45
2021/12/13 12:03:49;;;;;;;;;5.00;5.00;;;;;10.38;69.02;102228.03;4962009;28;45238;-48
2021/12/13 12:06:48;;;;;;;;;3.00;3.00;;;;;10.35;69.17;102224.47;4962035;28;45476;-47
2021/12/13 12:09:22;;;;;;;;;6.50;5.00;;;;;10.31;69.22;102215.66;4962117;28;45539;-46
2021/12/13 12:12:09;;;;;;;;;2.50;2.50;;;;;10.32;69.14;102211.31;4961469;28;46055;-48
2021/12/13 12:14:35;;;;;;;;;4.00;4.00;;;;;10.27;69.23;102200.75;4957624;28;45209;-46
2021/12/13 12:17:02;;;;;;;;;5.50;4.50;;;;;10.29;69.08;102199.03;4962154;28;45257;-47
2021/12/13 12:19:32;;;;;;;;;7.75;6.00;;;;;10.34;69.03;102196.41;4962101;28;45256;-46
2021/12/13 12:22:00;;;;;;;;;7.00;5.75;;;;;10.33;68.96;102198.19;4961661;28;45408;-47
2021/12/13 12:24:39;;;;;;;;;6.75;5.50;;;;;10.32;68.95;102199.03;4961901;28;45205;-47
2021/12/13 12:27:26;;;;;;;;;3.25;3.25;;;;;10.32;69.07;102200.78;4962090;28;45369;-47
2021/12/13 12:29:59;;;;;;;;;5.00;3.75;;;;;10.34;68.80;102199.94;4944505;28;45298;-48
2021/12/13 12:32:31;;;;;;;;;7.00;6.00;;;;;10.33;69.00;102194.69;4961403;28;46356;-49